sensor_id;sensor_type;location;lat;lon;timestamp;pressure;altitude;pressure_sealevel;temperature;humidity
58843;BME280;44614;54.356;10.100;2023-04-02T00:01:45;101505.84;;;1.86;87.44
58843;BME280;44614;54.356;10.100;2023-04-02T00:04:13;101505.84;;;1.86;87.72
58843;BME280;44614;54.356;10.100;2023-04-02T00:06:41;101515.81;;;1.85;86.99
58843;BME280;44614;54.356;10.100;2023-04-02T00:11:40;101506.63;;;1.68;85.77
58843;BME280;44614;54.356;10.100;2023-04-02T00:14:16;101537.19;;;1.88;86.01
58843;BME280;44614;54.356;10.100;2023-04-02T00:16:43;101533.34;;;1.91;85.96
58843;BME280;44614;54.356;10.100;2023-04-02T00:19:16;101548.59;;;1.92;85.46
58843;BME280;44614;54.356;10.100;2023-04-02T00:21:44;101536.75;;;1.93;86.11
58843;BME280;44614;54.356;10.100;2023-04-02T00:24:13;101542.63;;;1.88;85.39
58843;BME280;44614;54.356;10.100;2023-04-02T00:26:43;101546.34;;;1.87;86.85
58843;BME280;44614;54.356;10.100;2023-04-02T00:29:11;101549.03;;;1.87;87.27
58843;BME280;44614;54.356;10.100;2023-04-02T00:31:40;101558.31;;;1.85;88.04
58843;BME280;44614;54.356;10.100;2023-04-02T00:34:08;101549.78;;;1.80;86.46
58843;BME280;44614;54.356;10.100;2023-04-02T00:36:39;101558.31;;;1.85;86.63
58843;BME280;44614;54.356;10.100;2023-04-02T00:39:06;101563.31;;;1.80;84.13
58843;BME280;44614;54.356;10.100;2023-04-02T00:41:36;101563.31;;;1.80;82.89
58843;BME280;44614;54.356;10.100;2023-04-02T00:44:03;101557.59;;;1.83;80.57
58843;BME280;44614;54.356;10.100;2023-04-02T00:46:40;101561.69;;;1.87;78.39
58843;BME280;44614;54.356;10.100;2023-04-02T00:49:35;101558.88;;;1.88;77.71
58843;BME280;44614;54.356;10.100;2023-04-02T00:52:05;101566.13;;;1.88;78.87
58843;BME280;44614;54.356;10.100;2023-04-02T00:54:38;101565.72;;;1.83;79.99
58843;BME280;44614;54.356;10.100;2023-04-02T00:57:13;101560.91;;;1.77;82.31
58843;BME280;44614;54.356;10.100;2023-04-02T01:02:38;101583.13;;;1.80;83.04
58843;BME280;44614;54.356;10.100;2023-04-02T01:07:56;101586.56;;;1.73;84.73
58843;BME280;44614;54.356;10.100;2023-04-02T01:16:31;101593.97;;;1.70;84.74
58843;BME280;44614;54.356;10.100;2023-04-02T01:24:30;101601.41;;;1.68;84.36
58843;BME280;44614;54.356;10.100;2023-04-02T01:29:24;101614.22;;;1.66;84.23
58843;BME280;44614;54.356;10.100;2023-04-02T01:31:52;101622.63;;;1.63;85.49
58843;BME280;44614;54.356;10.100;2023-04-02T01:34:21;101625.66;;;1.60;84.84
58843;BME280;44614;54.356;10.100;2023-04-02T01:41:53;101634.63;;;1.61;83.84
58843;BME280;44614;54.356;10.100;2023-04-02T01:44:36;101641.03;;;1.60;84.21
58843;BME280;44614;54.356;10.100;2023-04-02T01:47:09;101636.78;;;1.57;83.52
58843;BME280;44614;54.356;10.100;2023-04-02T01:49:35;101641.03;;;1.60;83.62
58843;BME280;44614;54.356;10.100;2023-04-02T01:52:00;101639.59;;;1.56;84.71
58843;BME280;44614;54.356;10.100;2023-04-02T01:54:26;101609.44;;;1.31;84.79
58843;BME280;44614;54.356;10.100;2023-04-02T01:56:53;101657.44;;;1.58;83.51
58843;BME280;44614;54.356;10.100;2023-04-02T01:59:25;101617.41;;;1.33;84.09
58843;BME280;44614;54.356;10.100;2023-04-02T02:01:57;101669.25;;;1.57;84.50
58843;BME280;44614;54.356;10.100;2023-04-02T02:04:25;101647.31;;;1.51;84.14
58843;BME280;44614;54.356;10.100;2023-04-02T02:06:51;101640.47;;;1.37;83.79
58843;BME280;44614;54.356;10.100;2023-04-02T02:09:20;101673.81;;;1.47;83.96
58843;BME280;44614;54.356;10.100;2023-04-02T02:11:48;101676.94;;;1.52;83.67
58843;BME280;44614;54.356;10.100;2023-04-02T02:14:26;101679.66;;;1.52;84.28
58843;BME280;44614;54.356;10.100;2023-04-02T02:16:56;101678.69;;;1.53;84.33
58843;BME280;44614;54.356;10.100;2023-04-02T02:21:54;101681.78;;;1.49;84.59
58843;BME280;44614;54.356;10.100;2023-04-02T02:24:24;101685.22;;;1.51;84.20
58843;BME280;44614;54.356;10.100;2023-04-02T02:29:41;101699.03;;;1.48;84.22
58843;BME280;44614;54.356;10.100;2023-04-02T02:32:11;101696.75;;;1.43;84.52
58843;BME280;44614;54.356;10.100;2023-04-02T02:34:48;101675.53;;;1.29;84.30
58843;BME280;44614;54.356;10.100;2023-04-02T02:37:27;101713.00;;;1.43;84.73
58843;BME280;44614;54.356;10.100;2023-04-02T02:39:56;101698.59;;;1.33;84.95
58843;BME280;44614;54.356;10.100;2023-04-02T02:42:36;101720.56;;;1.39;83.14
58843;BME280;44614;54.356;10.100;2023-04-02T02:45:05;101726.25;;;1.46;83.60
58843;BME280;44614;54.356;10.100;2023-04-02T02:47:36;101723.97;;;1.41;83.78
58843;BME280;44614;54.356;10.100;2023-04-02T02:50:06;101730.81;;;1.45;84.10
58843;BME280;44614;54.356;10.100;2023-04-02T02:52:37;101716.41;;;1.35;84.05
58843;BME280;44614;54.356;10.100;2023-04-02T02:55:06;101746.50;;;1.42;85.18
58843;BME280;44614;54.356;10.100;2023-04-02T02:57:41;101741.34;;;1.39;83.96
58843;BME280;44614;54.356;10.100;2023-04-02T03:00:09;101753.88;;;1.40;84.19
58843;BME280;44614;54.356;10.100;2023-04-02T03:02:40;101754.59;;;1.42;85.04
58843;BME280;44614;54.356;10.100;2023-04-02T03:05:06;101754.03;;;1.38;84.67
58843;BME280;44614;54.356;10.100;2023-04-02T03:07:32;101755.75;;;1.39;84.31
58843;BME280;44614;54.356;10.100;2023-04-02T03:17:50;101772.13;;;1.38;83.21
58843;BME280;44614;54.356;10.100;2023-04-02T03:20:25;101778.25;;;1.40;83.58
58843;BME280;44614;54.356;10.100;2023-04-02T03:23:04;101773.94;;;1.37;84.30
58843;BME280;44614;54.356;10.100;2023-04-02T03:25:39;101782.06;;;1.37;84.19
58843;BME280;44614;54.356;10.100;2023-04-02T03:28:13;101786.63;;;1.37;84.78
58843;BME280;44614;54.356;10.100;2023-04-02T03:30:46;101785.78;;;1.36;84.37
58843;BME280;44614;54.356;10.100;2023-04-02T03:33:17;101800.16;;;1.37;83.89
58843;BME280;44614;54.356;10.100;2023-04-02T03:35:52;101803.72;;;1.37;84.71
58843;BME280;44614;54.356;10.100;2023-04-02T03:38:26;101806.84;;;1.33;84.74
58843;BME280;44614;54.356;10.100;2023-04-02T03:41:05;101814.41;;;1.29;85.10
58843;BME280;44614;54.356;10.100;2023-04-02T03:43:40;101816.25;;;1.29;84.99
58843;BME280;44614;54.356;10.100;2023-04-02T03:46:41;101819.97;;;1.28;84.05
58843;BME280;44614;54.356;10.100;2023-04-02T03:49:13;101823.38;;;1.30;84.51
58843;BME280;44614;54.356;10.100;2023-04-02T03:51:58;101822.94;;;1.25;83.60
58843;BME280;44614;54.356;10.100;2023-04-02T03:54:26;101845.91;;;1.30;84.10
58843;BME280;44614;54.356;10.100;2023-04-02T03:56:52;101835.34;;;1.27;84.19
58843;BME280;44614;54.356;10.100;2023-04-02T03:59:46;101840.75;;;1.27;84.09
58843;BME280;44614;54.356;10.100;2023-04-02T04:02:38;101868.66;;;1.28;83.23
58843;BME280;44614;54.356;10.100;2023-04-02T04:05:06;101868.66;;;1.28;84.32
58843;BME280;44614;54.356;10.100;2023-04-02T04:07:42;101868.22;;;1.23;84.73
58843;BME280;44614;54.356;10.100;2023-04-02T04:10:16;101883.75;;;1.20;84.13
58843;BME280;44614;54.356;10.100;2023-04-02T04:12:45;101877.63;;;1.18;84.05
58843;BME280;44614;54.356;10.100;2023-04-02T04:15:25;101879.19;;;1.21;84.37
58843;BME280;44614;54.356;10.100;2023-04-02T04:20:33;101891.84;;;1.20;85.29
58843;BME280;44614;54.356;10.100;2023-04-02T04:23:21;101889.16;;;1.20;85.48
58843;BME280;44614;54.356;10.100;2023-04-02T04:26:54;101897.25;;;1.20;85.35
58843;BME280;44614;54.356;10.100;2023-04-02T04:35:01;101919.31;;;1.16;85.56
58843;BME280;44614;54.356;10.100;2023-04-02T04:37:35;101894.41;;;0.91;85.99
58843;BME280;44614;54.356;10.100;2023-04-02T04:41:09;101935.81;;;1.13;85.79
58843;BME280;44614;54.356;10.100;2023-04-02T04:43:12;101926.41;;;1.07;85.26
58843;BME280;44614;54.356;10.100;2023-04-02T04:45:46;101941.97;;;1.15;85.95
58843;BME280;44614;54.356;10.100;2023-04-02T04:48:24;101838.28;;;0.53;85.80
58843;BME280;44614;54.356;10.100;2023-04-02T04:51:00;101944.09;;;1.11;85.28
58843;BME280;44614;54.356;10.100;2023-04-02T04:53:28;101951.06;;;1.14;85.95
58843;BME280;44614;54.356;10.100;2023-04-02T04:55:55;101915.94;;;0.93;86.22
58843;BME280;44614;54.356;10.100;2023-04-02T04:58:32;101953.16;;;1.10;86.50
58843;BME280;44614;54.356;10.100;2023-04-02T05:01:18;101946.63;;;1.03;86.39
58843;BME280;44614;54.356;10.100;2023-04-02T05:11:42;101972.00;;;1.12;86.20
58843;BME280;44614;54.356;10.100;2023-04-02T05:14:26;101978.13;;;1.14;85.69
58843;BME280;44614;54.356;10.100;2023-04-02T05:25:15;101989.53;;;1.17;85.46
58843;BME280;44614;54.356;10.100;2023-04-02T05:28:02;101992.97;;;1.19;85.78
58843;BME280;44614;54.356;10.100;2023-04-02T05:30:57;101998.38;;;1.19;85.18
58843;BME280;44614;54.356;10.100;2023-04-02T05:33:34;102000.81;;;1.23;85.88
58843;BME280;44614;54.356;10.100;2023-04-02T05:36:09;102009.66;;;1.25;86.01
58843;BME280;44614;54.356;10.100;2023-04-02T05:38:39;102011.50;;;1.24;85.37
58843;BME280;44614;54.356;10.100;2023-04-02T05:41:20;102008.28;;;1.30;85.10
58843;BME280;44614;54.356;10.100;2023-04-02T05:43:48;102019.97;;;1.31;84.05
58843;BME280;44614;54.356;10.100;2023-04-02T05:46:19;102000.81;;;1.23;83.71
58843;BME280;44614;54.356;10.100;2023-04-02T05:48:51;102027.16;;;1.41;84.03
58843;BME280;44614;54.356;10.100;2023-04-02T05:51:40;102002.72;;;1.32;81.42
58843;BME280;44614;54.356;10.100;2023-04-02T05:54:21;102043.84;;;1.56;79.99
58843;BME280;44614;54.356;10.100;2023-04-02T05:56:52;102042.22;;;1.65;79.72
58843;BME280;44614;54.356;10.100;2023-04-02T05:59:39;102039.53;;;1.75;80.34
58843;BME280;44614;54.356;10.100;2023-04-02T06:02:28;102054.97;;;1.84;79.98
58843;BME280;44614;54.356;10.100;2023-04-02T06:05:00;102033.84;;;1.78;79.87
58843;BME280;44614;54.356;10.100;2023-04-02T06:07:31;102060.88;;;1.99;80.61
58843;BME280;44614;54.356;10.100;2023-04-02T06:12:51;102085.13;;;2.10;78.40
58843;BME280;44614;54.356;10.100;2023-04-02T06:15:21;102056.97;;;2.22;79.65
58843;BME280;44614;54.356;10.100;2023-04-02T06:17:51;102067.09;;;2.30;80.27
58843;BME280;44614;54.356;10.100;2023-04-02T06:20:19;102070.25;;;2.35;78.99
58843;BME280;44614;54.356;10.100;2023-04-02T06:22:50;102077.69;;;2.42;77.17
58843;BME280;44614;54.356;10.100;2023-04-02T06:25:19;102085.38;;;2.47;76.67
58843;BME280;44614;54.356;10.100;2023-04-02T06:27:48;102084.00;;;2.53;77.93
58843;BME280;44614;54.356;10.100;2023-04-02T06:30:36;102064.56;;;2.57;75.60
58843;BME280;44614;54.356;10.100;2023-04-02T06:33:03;102078.59;;;2.72;75.33
58843;BME280;44614;54.356;10.100;2023-04-02T06:35:29;102052.03;;;2.56;76.08
58843;BME280;44614;54.356;10.100;2023-04-02T06:37:56;102089.16;;;2.85;77.60
58843;BME280;44614;54.356;10.100;2023-04-02T06:40:47;102098.72;;;2.99;75.45
58843;BME280;44614;54.356;10.100;2023-04-02T06:43:33;102104.13;;;3.08;73.82
58843;BME280;44614;54.356;10.100;2023-04-02T06:46:09;102108.03;;;3.06;74.14
58843;BME280;44614;54.356;10.100;2023-04-02T06:48:38;102120.88;;;3.13;73.84
58843;BME280;44614;54.356;10.100;2023-04-02T06:51:08;102116.59;;;3.21;75.73
58843;BME280;44614;54.356;10.100;2023-04-02T06:53:38;102110.28;;;3.30;74.63
58843;BME280;44614;54.356;10.100;2023-04-02T06:58:58;102111.50;;;3.55;74.43
58843;BME280;44614;54.356;10.100;2023-04-02T07:01:28;102050.72;;;3.18;73.74
58843;BME280;44614;54.356;10.100;2023-04-02T07:03:55;102141.66;;;3.61;73.17
58843;BME280;44614;54.356;10.100;2023-04-02T07:06:21;102145.13;;;3.63;72.65
58843;BME280;44614;54.356;10.100;2023-04-02T07:08:47;102140.66;;;3.72;70.12
58843;BME280;44614;54.356;10.100;2023-04-02T07:11:14;102134.09;;;3.75;72.57
58843;BME280;44614;54.356;10.100;2023-04-02T07:13:42;102151.34;;;3.93;72.96
58843;BME280;44614;54.356;10.100;2023-04-02T07:16:14;102155.03;;;4.02;70.74
58843;BME280;44614;54.356;10.100;2023-04-02T07:18:40;102157.59;;;4.03;71.50
58843;BME280;44614;54.356;10.100;2023-04-02T07:21:06;102157.84;;;4.10;72.09
58843;BME280;44614;54.356;10.100;2023-04-02T07:23:31;102164.72;;;4.14;68.97
58843;BME280;44614;54.356;10.100;2023-04-02T07:25:57;102168.91;;;3.99;68.51
58843;BME280;44614;54.356;10.100;2023-04-02T07:28:22;102170.53;;;3.82;70.67
58843;BME280;44614;54.356;10.100;2023-04-02T07:30:49;102165.97;;;3.82;71.26
58843;BME280;44614;54.356;10.100;2023-04-02T07:33:16;102179.66;;;3.90;71.71
58843;BME280;44614;54.356;10.100;2023-04-02T07:35:42;102136.91;;;3.83;72.03
58843;BME280;44614;54.356;10.100;2023-04-02T07:38:07;102176.44;;;4.14;73.74
58843;BME280;44614;54.356;10.100;2023-04-02T07:40:33;102190.19;;;4.13;69.71
58843;BME280;44614;54.356;10.100;2023-04-02T07:42:58;102184.78;;;4.03;68.39
58843;BME280;44614;54.356;10.100;2023-04-02T07:45:24;102180.78;;;3.98;70.03
58843;BME280;44614;54.356;10.100;2023-04-02T07:47:50;102193.66;;;4.05;71.02
58843;BME280;44614;54.356;10.100;2023-04-02T07:50:15;102194.03;;;4.20;71.44
58843;BME280;44614;54.356;10.100;2023-04-02T07:52:42;102205.09;;;4.09;67.23
58843;BME280;44614;54.356;10.100;2023-04-02T07:55:09;102219.09;;;4.04;70.13
58843;BME280;44614;54.356;10.100;2023-04-02T07:57:46;102212.50;;;4.07;72.08
58843;BME280;44614;54.356;10.100;2023-04-02T08:00:13;102182.63;;;4.07;73.19
58843;BME280;44614;54.356;10.100;2023-04-02T08:02:39;102202.69;;;4.43;73.64
58843;BME280;44614;54.356;10.100;2023-04-02T08:05:05;102227.38;;;4.59;73.49
58843;BME280;44614;54.356;10.100;2023-04-02T08:07:31;102224.34;;;4.62;68.24
58843;BME280;44614;54.356;10.100;2023-04-02T08:09:57;102227.19;;;4.71;72.45
58843;BME280;44614;54.356;10.100;2023-04-02T08:12:23;102217.41;;;4.78;74.22
58843;BME280;44614;54.356;10.100;2023-04-02T08:14:48;102237.97;;;4.90;73.83
58843;BME280;44614;54.356;10.100;2023-04-02T08:17:15;102238.34;;;4.95;73.83
58843;BME280;44614;54.356;10.100;2023-04-02T08:19:40;102240.94;;;4.97;73.75
58843;BME280;44614;54.356;10.100;2023-04-02T08:22:06;102248.53;;;4.93;72.92
58843;BME280;44614;54.356;10.100;2023-04-02T08:24:31;102260.94;;;5.05;72.34
58843;BME280;44614;54.356;10.100;2023-04-02T08:26:58;102257.44;;;5.13;73.73
58843;BME280;44614;54.356;10.100;2023-04-02T08:29:24;102265.91;;;5.10;71.52
58843;BME280;44614;54.356;10.100;2023-04-02T08:31:49;102264.59;;;4.96;68.69
58843;BME280;44614;54.356;10.100;2023-04-02T08:34:15;102266.88;;;4.91;69.95
58843;BME280;44614;54.356;10.100;2023-04-02T08:36:42;102274.16;;;5.00;70.78
58843;BME280;44614;54.356;10.100;2023-04-02T08:39:08;102261.69;;;4.98;70.81
58843;BME280;44614;54.356;10.100;2023-04-02T08:42:13;102277.97;;;5.07;68.21
58843;BME280;44614;54.356;10.100;2023-04-02T08:47:12;102287.97;;;5.17;69.86
58843;BME280;44614;54.356;10.100;2023-04-02T08:49:43;102289.09;;;5.14;67.26
58843;BME280;44614;54.356;10.100;2023-04-02T08:52:35;102298.47;;;5.11;68.64
58843;BME280;44614;54.356;10.100;2023-04-02T08:55:02;102304.66;;;5.04;69.72
58843;BME280;44614;54.356;10.100;2023-04-02T09:00:07;102326.75;;;5.28;67.98
58843;BME280;44614;54.356;10.100;2023-04-02T09:02:49;102316.31;;;5.24;70.68
58843;BME280;44614;54.356;10.100;2023-04-02T09:05:30;102329.72;;;5.35;71.38
58843;BME280;44614;54.356;10.100;2023-04-02T09:07:58;102306.06;;;5.08;68.71
58843;BME280;44614;54.356;10.100;2023-04-02T09:13:26;102333.19;;;5.27;68.86
58843;BME280;44614;54.356;10.100;2023-04-02T09:15:54;102334.16;;;5.36;65.99
58843;BME280;44614;54.356;10.100;2023-04-02T09:18:22;102334.69;;;5.40;69.41
58843;BME280;44614;54.356;10.100;2023-04-02T09:20:48;102346.84;;;5.45;64.84
58843;BME280;44614;54.356;10.100;2023-04-02T09:23:20;102342.56;;;5.43;69.09
58843;BME280;44614;54.356;10.100;2023-04-02T09:25:50;102337.84;;;5.62;70.90
58843;BME280;44614;54.356;10.100;2023-04-02T09:28:16;102343.84;;;5.66;68.13
58843;BME280;44614;54.356;10.100;2023-04-02T09:33:50;102355.28;;;5.52;66.44
58843;BME280;44614;54.356;10.100;2023-04-02T09:39:14;102354.63;;;5.40;67.06
58843;BME280;44614;54.356;10.100;2023-04-02T09:41:40;102354.13;;;5.27;67.32
58843;BME280;44614;54.356;10.100;2023-04-02T09:44:24;102328.56;;;5.10;65.78
58843;BME280;44614;54.356;10.100;2023-04-02T09:49:18;102370.03;;;5.31;68.49
58843;BME280;44614;54.356;10.100;2023-04-02T09:54:32;102363.81;;;5.11;70.79
58843;BME280;44614;54.356;10.100;2023-04-02T09:57:02;102385.19;;;5.61;72.13
58843;BME280;44614;54.356;10.100;2023-04-02T09:59:28;102386.22;;;5.78;69.83
58843;BME280;44614;54.356;10.100;2023-04-02T10:04:44;102408.63;;;5.27;64.92
58843;BME280;44614;54.356;10.100;2023-04-02T10:12:40;102407.56;;;5.00;66.26
58843;BME280;44614;54.356;10.100;2023-04-02T10:15:06;102413.75;;;4.93;62.97
58843;BME280;44614;54.356;10.100;2023-04-02T10:17:39;102420.75;;;4.95;66.90
58843;BME280;44614;54.356;10.100;2023-04-02T10:20:16;102390.13;;;4.83;67.33
58843;BME280;44614;54.356;10.100;2023-04-02T10:22:44;102419.59;;;4.98;67.94
58843;BME280;44614;54.356;10.100;2023-04-02T10:25:14;102416.78;;;4.80;64.62
58843;BME280;44614;54.356;10.100;2023-04-02T10:27:54;102428.63;;;4.98;67.11
58843;BME280;44614;54.356;10.100;2023-04-02T10:33:33;102435.84;;;4.80;67.08
58843;BME280;44614;54.356;10.100;2023-04-02T10:38:53;102444.28;;;4.77;66.61
58843;BME280;44614;54.356;10.100;2023-04-02T10:41:41;102459.72;;;5.05;64.51
58843;BME280;44614;54.356;10.100;2023-04-02T10:50:07;102475.34;;;5.50;67.75
58843;BME280;44614;54.356;10.100;2023-04-02T10:52:56;102480.50;;;5.53;65.79
58843;BME280;44614;54.356;10.100;2023-04-02T10:55:29;102470.88;;;5.49;68.71
58843;BME280;44614;54.356;10.100;2023-04-02T10:58:01;102442.66;;;5.03;69.81
58843;BME280;44614;54.356;10.100;2023-04-02T11:00:33;102485.69;;;5.37;70.62
58843;BME280;44614;54.356;10.100;2023-04-02T11:03:05;102473.38;;;5.33;69.52
58843;BME280;44614;54.356;10.100;2023-04-02T11:11:02;102482.56;;;5.32;69.74
58843;BME280;44614;54.356;10.100;2023-04-02T11:15:57;102498.22;;;5.20;70.76
58843;BME280;44614;54.356;10.100;2023-04-02T11:18:26;102507.09;;;5.22;69.18
58843;BME280;44614;54.356;10.100;2023-04-02T11:20:58;102502.00;;;4.90;69.15
58843;BME280;44614;54.356;10.100;2023-04-02T11:23:29;102493.13;;;4.98;71.18
58843;BME280;44614;54.356;10.100;2023-04-02T11:26:33;102502.59;;;4.84;65.64
58843;BME280;44614;54.356;10.100;2023-04-02T11:31:41;102497.59;;;5.36;72.83
58843;BME280;44614;54.356;10.100;2023-04-02T11:34:10;102507.31;;;5.48;64.66
58843;BME280;44614;54.356;10.100;2023-04-02T11:39:46;102522.78;;;5.57;70.05
58843;BME280;44614;54.356;10.100;2023-04-02T11:44:44;102507.16;;;4.83;67.54
58843;BME280;44614;54.356;10.100;2023-04-02T11:50:00;102506.69;;;5.17;66.20
58843;BME280;44614;54.356;10.100;2023-04-02T11:52:28;102541.25;;;5.17;69.02
58843;BME280;44614;54.356;10.100;2023-04-02T11:55:01;102535.34;;;5.31;72.17
58843;BME280;44614;54.356;10.100;2023-04-02T11:57:36;102532.88;;;5.37;69.19
58843;BME280;44614;54.356;10.100;2023-04-02T12:00:47;102540.88;;;5.49;68.05
58843;BME280;44614;54.356;10.100;2023-04-02T12:11:16;102553.56;;;5.11;68.37
58843;BME280;44614;54.356;10.100;2023-04-02T12:16:10;102564.13;;;5.33;71.90
58843;BME280;44614;54.356;10.100;2023-04-02T12:18:47;102541.47;;;5.80;70.10
58843;BME280;44614;54.356;10.100;2023-04-02T12:21:20;102544.06;;;5.72;69.47
58843;BME280;44614;54.356;10.100;2023-04-02T12:23:47;102562.03;;;6.29;70.69
58843;BME280;44614;54.356;10.100;2023-04-02T12:26:26;102560.53;;;6.63;61.30
58843;BME280;44614;54.356;10.100;2023-04-02T12:28:54;102560.69;;;6.79;68.10
58843;BME280;44614;54.356;10.100;2023-04-02T12:31:21;102570.25;;;7.37;69.06
58843;BME280;44614;54.356;10.100;2023-04-02T12:33:51;102567.25;;;7.82;67.91
58843;BME280;44614;54.356;10.100;2023-04-02T12:36:19;102570.09;;;8.41;67.98
58843;BME280;44614;54.356;10.100;2023-04-02T12:38:51;102570.53;;;8.70;60.95
58843;BME280;44614;54.356;10.100;2023-04-02T12:44:15;102571.50;;;8.11;58.76
58843;BME280;44614;54.356;10.100;2023-04-02T12:46:41;102557.00;;;8.26;66.08
58843;BME280;44614;54.356;10.100;2023-04-02T12:51:36;102570.47;;;8.12;59.76
58843;BME280;44614;54.356;10.100;2023-04-02T12:54:02;102567.16;;;8.00;66.30
58843;BME280;44614;54.356;10.100;2023-04-02T12:56:28;102564.19;;;8.86;68.07
58843;BME280;44614;54.356;10.100;2023-04-02T12:58:55;102575.31;;;9.58;66.24
58843;BME280;44614;54.356;10.100;2023-04-02T13:01:23;102576.34;;;9.33;60.94
58843;BME280;44614;54.356;10.100;2023-04-02T13:04:07;102583.00;;;8.65;58.57
58843;BME280;44614;54.356;10.100;2023-04-02T13:06:34;102561.63;;;8.26;64.31
58843;BME280;44614;54.356;10.100;2023-04-02T13:09:03;102581.81;;;8.17;59.68
58843;BME280;44614;54.356;10.100;2023-04-02T13:11:37;102585.41;;;7.83;64.31
58843;BME280;44614;54.356;10.100;2023-04-02T13:14:06;102588.22;;;7.73;63.06
58843;BME280;44614;54.356;10.100;2023-04-02T13:16:36;102589.25;;;7.98;65.70
58843;BME280;44614;54.356;10.100;2023-04-02T13:19:26;102592.81;;;8.33;58.62
58843;BME280;44614;54.356;10.100;2023-04-02T13:21:52;102589.63;;;8.12;62.64
58843;BME280;44614;54.356;10.100;2023-04-02T13:24:29;102603.28;;;8.03;64.96
58843;BME280;44614;54.356;10.100;2023-04-02T13:27:00;102588.19;;;8.34;62.45
58843;BME280;44614;54.356;10.100;2023-04-02T13:29:34;102591.72;;;8.68;65.54
58843;BME280;44614;54.356;10.100;2023-04-02T13:32:05;102602.56;;;9.02;63.86
58843;BME280;44614;54.356;10.100;2023-04-02T13:34:31;102576.88;;;9.28;60.11
58843;BME280;44614;54.356;10.100;2023-04-02T13:36:56;102602.38;;;9.45;62.58
58843;BME280;44614;54.356;10.100;2023-04-02T13:39:22;102608.97;;;9.91;61.09
58843;BME280;44614;54.356;10.100;2023-04-02T13:41:51;102602.41;;;9.37;55.78
58843;BME280;44614;54.356;10.100;2023-04-02T13:44:22;102579.41;;;8.81;62.09
58843;BME280;44614;54.356;10.100;2023-04-02T13:46:48;102584.75;;;8.98;63.05
58843;BME280;44614;54.356;10.100;2023-04-02T13:49:14;102596.38;;;9.58;63.97
58843;BME280;44614;54.356;10.100;2023-04-02T13:51:46;102614.22;;;10.17;60.88
58843;BME280;44614;54.356;10.100;2023-04-02T13:54:30;102615.53;;;10.46;57.22
58843;BME280;44614;54.356;10.100;2023-04-02T13:56:58;102620.19;;;10.37;56.22
58843;BME280;44614;54.356;10.100;2023-04-02T13:59:25;102612.50;;;9.52;59.07
58843;BME280;44614;54.356;10.100;2023-04-02T14:01:52;102617.59;;;9.80;49.56
58843;BME280;44614;54.356;10.100;2023-04-02T14:04:25;102629.63;;;9.22;55.21
58843;BME280;44614;54.356;10.100;2023-04-02T14:44:37;102631.16;;;10.37;59.07
58843;BME280;44614;54.356;10.100;2023-04-02T14:49:44;102648.09;;;10.88;57.58
58843;BME280;44614;54.356;10.100;2023-04-02T14:52:16;102643.25;;;10.90;57.95
58843;BME280;44614;54.356;10.100;2023-04-02T14:54:58;102642.41;;;10.90;57.76
58843;BME280;44614;54.356;10.100;2023-04-02T14:57:26;102653.34;;;10.19;56.68
58843;BME280;44614;54.356;10.100;2023-04-02T15:02:37;102651.63;;;8.55;58.99
58843;BME280;44614;54.356;10.100;2023-04-02T15:05:18;102645.91;;;8.40;62.09
58843;BME280;44614;54.356;10.100;2023-04-02T15:08:05;102653.25;;;8.90;59.83
58843;BME280;44614;54.356;10.100;2023-04-02T15:10:34;102659.06;;;8.87;61.51
58843;BME280;44614;54.356;10.100;2023-04-02T15:13:05;102663.53;;;8.96;61.25
58843;BME280;44614;54.356;10.100;2023-04-02T15:15:41;102661.16;;;9.01;58.56
58843;BME280;44614;54.356;10.100;2023-04-02T15:18:11;102657.25;;;9.20;60.73
58843;BME280;44614;54.356;10.100;2023-04-02T15:23:44;102661.53;;;9.39;60.84
58843;BME280;44614;54.356;10.100;2023-04-02T15:26:29;102667.69;;;9.66;60.86
58843;BME280;44614;54.356;10.100;2023-04-02T15:29:02;102661.69;;;9.30;57.32
58843;BME280;44614;54.356;10.100;2023-04-02T15:31:29;102672.59;;;8.46;57.63
58843;BME280;44614;54.356;10.100;2023-04-02T15:34:29;102681.06;;;7.75;56.07
58843;BME280;44614;54.356;10.100;2023-04-02T15:47:48;102708.75;;;6.08;65.11
58843;BME280;44614;54.356;10.100;2023-04-02T15:50:37;102710.94;;;5.95;65.46
58843;BME280;44614;54.356;10.100;2023-04-02T15:56:02;102714.22;;;5.89;63.19
58843;BME280;44614;54.356;10.100;2023-04-02T15:58:49;102720.97;;;5.75;63.71
58843;BME280;44614;54.356;10.100;2023-04-02T16:07:18;102715.97;;;5.41;61.44
58843;BME280;44614;54.356;10.100;2023-04-02T16:12:17;102738.66;;;5.32;59.82
58843;BME280;44614;54.356;10.100;2023-04-02T16:14:46;102746.69;;;5.24;58.46
58843;BME280;44614;54.356;10.100;2023-04-02T16:17:20;102737.47;;;5.15;56.86
58843;BME280;44614;54.356;10.100;2023-04-02T16:19:51;102731.88;;;5.07;58.06
58843;BME280;44614;54.356;10.100;2023-04-02T16:22:22;102740.63;;;5.10;53.78
58843;BME280;44614;54.356;10.100;2023-04-02T16:25:00;102749.50;;;5.03;53.77
58843;BME280;44614;54.356;10.100;2023-04-02T16:27:35;102722.22;;;4.83;53.67
58843;BME280;44614;54.356;10.100;2023-04-02T16:33:05;102750.19;;;4.85;57.18
58843;BME280;44614;54.356;10.100;2023-04-02T16:38:52;102759.31;;;4.84;56.49
58843;BME280;44614;54.356;10.100;2023-04-02T16:41:27;102769.09;;;4.87;57.43
58843;BME280;44614;54.356;10.100;2023-04-02T16:46:57;102763.16;;;4.72;57.50
58843;BME280;44614;54.356;10.100;2023-04-02T16:49:40;102772.06;;;4.74;57.43
58843;BME280;44614;54.356;10.100;2023-04-02T17:05:33;102803.78;;;4.54;57.12
58843;BME280;44614;54.356;10.100;2023-04-02T17:08:43;102798.59;;;4.51;58.18
58843;BME280;44614;54.356;10.100;2023-04-02T17:14:30;102785.44;;;4.26;58.98
58843;BME280;44614;54.356;10.100;2023-04-02T17:17:01;102801.94;;;4.34;60.66